createdAt,value
2024-01-26T00:01:06.311Z,2.10
2024-01-26T00:03:44.763Z,2.10
2024-01-26T00:06:12.862Z,2.10
2024-01-26T00:08:40.742Z,2.10
2024-01-26T00:11:13.871Z,2.20
2024-01-26T00:13:41.291Z,2.20
2024-01-26T00:16:08.437Z,2.20
2024-01-26T00:18:41.303Z,2.20
2024-01-26T00:21:09.067Z,2.20
2024-01-26T00:23:36.795Z,2.20
2024-01-26T00:26:03.990Z,3.50
2024-01-26T00:28:31.914Z,2.20
2024-01-26T00:30:59.229Z,2.30
2024-01-26T00:33:26.833Z,2.30
2024-01-26T00:35:53.988Z,2.30
2024-01-26T00:38:21.426Z,2.30
2024-01-26T00:40:48.629Z,2.20
2024-01-26T00:43:15.967Z,2.20
2024-01-26T00:45:43.380Z,2.20
2024-01-26T00:48:10.837Z,2.20
2024-01-26T00:50:38.086Z,2.20
2024-01-26T00:53:05.527Z,2.20
2024-01-26T00:55:32.667Z,2.20
2024-01-26T00:58:00.881Z,2.10
2024-01-26T01:00:28.264Z,2.10
2024-01-26T01:02:55.721Z,2.10
2024-01-26T01:05:23.020Z,2.10
2024-01-26T01:07:50.764Z,2.10
2024-01-26T01:10:17.847Z,2.00
2024-01-26T01:12:45.566Z,2.00
2024-01-26T01:15:12.768Z,2.60
2024-01-26T01:17:41.065Z,2.00
2024-01-26T01:20:11.217Z,2.00
2024-01-26T01:22:40.649Z,2.00
2024-01-26T01:25:09.684Z,2.00
2024-01-26T01:27:37.623Z,1.90
2024-01-26T01:30:05.906Z,1.90
2024-01-26T01:32:34.344Z,1.90
2024-01-26T01:35:02.650Z,1.80
2024-01-26T01:37:30.206Z,1.80
2024-01-26T01:39:57.304Z,1.80
2024-01-26T01:42:24.816Z,1.80
2024-01-26T01:44:52.307Z,1.80
2024-01-26T01:47:19.879Z,1.80
2024-01-26T01:49:47.192Z,1.80
2024-01-26T01:52:19.361Z,1.80
2024-01-26T01:54:49.272Z,1.80
2024-01-26T01:57:20.517Z,1.80
2024-01-26T01:59:47.777Z,1.90
2024-01-26T02:02:15.226Z,1.80
2024-01-26T02:04:42.365Z,1.90
2024-01-26T02:07:09.711Z,1.90
2024-01-26T02:09:37.097Z,1.80
2024-01-26T02:12:04.753Z,1.80
2024-01-26T02:14:31.898Z,1.80
2024-01-26T02:17:01.251Z,1.90
2024-01-26T02:19:29.373Z,1.80
2024-01-26T02:21:56.808Z,1.80
2024-01-26T02:24:23.877Z,1.80
2024-01-26T02:26:51.375Z,1.70
2024-01-26T02:29:18.524Z,1.70
2024-01-26T02:31:45.918Z,1.60
2024-01-26T02:34:14.764Z,1.60
2024-01-26T02:36:42.389Z,1.60
2024-01-26T02:39:11.262Z,1.60
2024-01-26T02:41:38.795Z,1.50
2024-01-26T02:44:05.942Z,1.50
2024-01-26T02:46:34.200Z,1.50
2024-01-26T02:49:03.080Z,1.40
2024-01-26T02:51:30.679Z,1.40
2024-01-26T02:53:57.858Z,1.40
2024-01-26T02:56:25.234Z,1.40
2024-01-26T02:58:52.414Z,2.10
2024-01-26T03:01:20.295Z,1.40
2024-01-26T03:03:47.464Z,1.30
2024-01-26T03:06:15.005Z,1.40
2024-01-26T03:08:42.419Z,1.40
2024-01-26T03:11:13.421Z,1.40
2024-01-26T03:13:43.414Z,1.40
2024-01-26T03:16:11.457Z,1.40
2024-01-26T03:18:38.725Z,1.40
2024-01-26T03:21:06.258Z,1.40
2024-01-26T03:23:33.507Z,1.40
2024-01-26T03:26:00.882Z,1.40
2024-01-26T03:28:28.087Z,1.40
2024-01-26T03:30:55.419Z,1.40
2024-01-26T03:33:22.731Z,1.30
2024-01-26T03:35:50.300Z,1.30
2024-01-26T03:38:17.641Z,1.30
2024-01-26T03:40:44.988Z,1.30
2024-01-26T03:43:12.090Z,1.30
2024-01-26T03:45:39.553Z,1.30
2024-01-26T03:48:07.043Z,1.30
2024-01-26T03:50:35.284Z,1.20
2024-01-26T03:53:02.469Z,1.30
2024-01-26T03:55:29.823Z,1.20
2024-01-26T03:57:57.130Z,1.20
2024-01-26T04:00:24.601Z,1.50
2024-01-26T04:02:51.855Z,1.20
2024-01-26T04:05:19.470Z,1.10
2024-01-26T04:07:46.532Z,1.10
2024-01-26T04:10:13.877Z,1.10
2024-01-26T04:12:40.912Z,1.00
2024-01-26T04:15:08.756Z,1.00
2024-01-26T04:17:35.986Z,1.00
2024-01-26T04:20:04.041Z,1.00
2024-01-26T04:22:31.142Z,1.00
2024-01-26T04:24:58.599Z,1.00
2024-01-26T04:27:25.671Z,1.00
2024-01-26T04:29:53.228Z,1.10
2024-01-26T04:32:20.421Z,1.10
2024-01-26T04:34:48.374Z,1.20
2024-01-26T04:37:15.447Z,1.20
2024-01-26T04:39:43.608Z,1.20
2024-01-26T04:42:10.855Z,1.20
2024-01-26T04:44:38.360Z,1.20
2024-01-26T04:47:05.674Z,1.10
2024-01-26T04:49:33.087Z,1.10
2024-01-26T04:52:02.672Z,1.10
2024-01-26T04:54:30.148Z,1.20
2024-01-26T04:56:57.376Z,1.20
2024-01-26T04:59:24.839Z,1.20
2024-01-26T05:01:52.305Z,1.20
2024-01-26T05:04:19.809Z,1.20
2024-01-26T05:06:47.163Z,1.20
2024-01-26T05:09:18.053Z,1.20
2024-01-26T05:11:45.317Z,1.20
2024-01-26T05:14:13.256Z,1.10
2024-01-26T05:16:40.377Z,1.10
2024-01-26T05:19:08.080Z,1.10
2024-01-26T05:21:35.474Z,1.00
2024-01-26T05:24:03.065Z,1.10
2024-01-26T05:26:30.339Z,1.00
2024-01-26T05:28:57.752Z,1.00
2024-01-26T05:31:24.892Z,1.10
2024-01-26T05:33:52.445Z,1.00
2024-01-26T05:36:20.996Z,1.10
2024-01-26T05:38:48.361Z,1.10
2024-01-26T05:41:15.639Z,1.10
2024-01-26T05:43:43.195Z,1.10
2024-01-26T05:46:10.277Z,1.20
2024-01-26T05:48:37.685Z,1.20
2024-01-26T05:51:05.160Z,2.30
2024-01-26T05:53:32.651Z,1.20
2024-01-26T05:56:01.589Z,1.30
2024-01-26T05:58:29.023Z,1.30
2024-01-26T06:00:56.091Z,1.40
2024-01-26T06:03:23.650Z,1.40
2024-01-26T06:05:51.050Z,1.50
2024-01-26T06:08:18.453Z,1.50
2024-01-26T06:10:45.538Z,1.50
2024-01-26T06:13:13.063Z,1.60
2024-01-26T06:15:40.248Z,1.60
2024-01-26T06:18:07.966Z,1.60
2024-01-26T06:20:35.558Z,1.60
2024-01-26T06:23:03.118Z,1.60
2024-01-26T06:25:30.331Z,1.60
2024-01-26T06:27:58.063Z,1.70
2024-01-26T06:30:25.949Z,1.60
2024-01-26T06:32:53.664Z,1.70
2024-01-26T06:35:20.879Z,1.60
2024-01-26T06:37:48.285Z,1.60
2024-01-26T06:40:16.139Z,1.70
2024-01-26T06:42:43.564Z,1.70
2024-01-26T06:45:12.566Z,1.70
2024-01-26T06:47:40.732Z,1.70
2024-01-26T06:50:11.572Z,1.70
2024-01-26T06:52:40.953Z,1.70
2024-01-26T06:55:08.405Z,1.60
2024-01-26T06:57:35.838Z,1.70
2024-01-26T07:00:03.223Z,1.70
2024-01-26T07:02:33.529Z,1.70
2024-01-26T07:05:02.176Z,1.70
2024-01-26T07:07:29.614Z,1.70
2024-01-26T07:09:56.755Z,1.70
2024-01-26T07:12:24.135Z,1.70
2024-01-26T07:14:51.998Z,1.70
2024-01-26T07:17:19.933Z,1.70
2024-01-26T07:19:47.002Z,1.70
2024-01-26T07:22:14.536Z,2.00
2024-01-26T07:24:41.695Z,1.70
2024-01-26T07:27:09.304Z,1.80
2024-01-26T07:29:36.632Z,1.70
2024-01-26T07:32:04.361Z,1.80
2024-01-26T07:34:32.346Z,1.80
2024-01-26T07:36:59.963Z,1.80
2024-01-26T07:39:27.900Z,1.80
2024-01-26T07:41:55.472Z,1.80
2024-01-26T07:44:22.510Z,1.80
2024-01-26T07:46:49.900Z,1.80
2024-01-26T07:49:17.200Z,1.80
2024-01-26T07:51:44.778Z,1.80
2024-01-26T07:54:11.954Z,1.80
2024-01-26T07:56:39.473Z,1.90
2024-01-26T07:59:06.498Z,1.90
2024-01-26T08:01:35.336Z,1.90
2024-01-26T08:04:03.353Z,2.10
2024-01-26T08:06:31.125Z,2.00
2024-01-26T08:08:58.686Z,2.00
2024-01-26T08:11:26.172Z,2.00
2024-01-26T08:13:53.492Z,2.00
2024-01-26T08:16:21.061Z,2.00
2024-01-26T08:18:48.521Z,2.00
2024-01-26T08:21:16.377Z,2.00
2024-01-26T08:23:43.642Z,2.00
2024-01-26T08:26:11.522Z,2.00
2024-01-26T08:28:38.708Z,2.00
2024-01-26T08:31:09.464Z,2.00
2024-01-26T08:33:37.079Z,2.00
2024-01-26T08:36:05.306Z,2.10
2024-01-26T08:38:32.529Z,2.10
2024-01-26T08:40:59.935Z,2.10
2024-01-26T08:43:27.138Z,2.20
2024-01-26T08:45:57.265Z,2.20
2024-01-26T08:48:24.601Z,2.20
2024-01-26T08:50:52.049Z,2.20
2024-01-26T08:53:19.251Z,2.20
2024-01-26T08:55:46.770Z,2.20
2024-01-26T08:58:13.941Z,2.20
2024-01-26T09:00:41.360Z,2.20
2024-01-26T09:03:08.509Z,2.30
2024-01-26T09:05:36.095Z,2.30
2024-01-26T09:08:03.968Z,2.30
2024-01-26T09:10:31.391Z,2.30
2024-01-26T09:12:58.474Z,2.30
2024-01-26T09:15:26.158Z,2.30
2024-01-26T09:17:53.291Z,2.30
2024-01-26T09:20:20.934Z,2.30
2024-01-26T09:22:48.002Z,2.30
2024-01-26T09:25:15.466Z,2.30
2024-01-26T09:27:43.476Z,2.30
2024-01-26T09:30:11.313Z,2.30
2024-01-26T09:32:38.662Z,2.30
2024-01-26T09:35:07.490Z,2.30
2024-01-26T09:37:35.554Z,2.40
2024-01-26T09:40:03.473Z,2.40
2024-01-26T09:42:30.833Z,2.40
2024-01-26T09:44:58.338Z,2.40
2024-01-26T09:47:27.723Z,2.40
2024-01-26T09:50:03.394Z,3.00
2024-01-26T09:52:31.396Z,2.50
2024-01-26T09:55:01.153Z,2.50
2024-01-26T09:57:30.957Z,2.40
2024-01-26T09:59:58.561Z,2.40
2024-01-26T10:02:27.080Z,2.40
2024-01-26T10:04:55.891Z,2.40
2024-01-26T10:07:23.427Z,2.40
2024-01-26T10:09:53.245Z,2.30
2024-01-26T10:12:22.176Z,2.30
2024-01-26T10:14:50.647Z,2.30
2024-01-26T10:17:21.091Z,2.30
2024-01-26T10:19:49.205Z,2.30
2024-01-26T10:22:16.821Z,2.20
2024-01-26T10:24:45.562Z,2.20
2024-01-26T10:27:13.585Z,2.20
2024-01-26T10:29:41.642Z,2.30
2024-01-26T10:32:14.300Z,2.30
2024-01-26T10:34:44.415Z,2.30
2024-01-26T10:37:16.041Z,2.40
2024-01-26T10:39:46.877Z,2.50
2024-01-26T10:42:15.253Z,2.50
2024-01-26T10:44:43.930Z,2.50
2024-01-26T10:47:13.016Z,2.60
2024-01-26T10:49:43.058Z,2.60
2024-01-26T10:52:11.342Z,2.60
2024-01-26T10:54:39.419Z,2.60
2024-01-26T10:57:06.632Z,2.60
2024-01-26T10:59:35.290Z,2.60
2024-01-26T11:02:02.842Z,2.60
2024-01-26T11:04:32.644Z,2.60
2024-01-26T11:07:01.175Z,2.60
2024-01-26T11:09:34.290Z,2.60
2024-01-26T11:12:01.540Z,2.60
2024-01-26T11:14:32.323Z,2.60
2024-01-26T11:17:10.950Z,2.60
2024-01-26T11:19:39.355Z,2.70
2024-01-26T11:22:10.289Z,2.90
2024-01-26T11:24:37.638Z,2.70
2024-01-26T11:27:06.130Z,2.70
2024-01-26T11:29:35.040Z,2.70
2024-01-26T11:32:15.194Z,2.60
2024-01-26T11:34:42.663Z,2.70
2024-01-26T11:37:15.422Z,2.60
2024-01-26T11:39:43.390Z,2.70
2024-01-26T11:42:12.318Z,2.60
2024-01-26T11:44:43.640Z,2.60
2024-01-26T11:47:12.027Z,2.60
2024-01-26T11:49:40.965Z,2.60
2024-01-26T11:52:08.304Z,2.60
2024-01-26T11:54:36.693Z,2.60
2024-01-26T11:57:04.508Z,2.60
2024-01-26T11:59:32.055Z,2.50
2024-01-26T12:02:00.295Z,2.50
2024-01-26T12:04:27.782Z,2.40
2024-01-26T12:06:55.298Z,2.40
2024-01-26T12:09:22.914Z,2.40
2024-01-26T12:11:50.495Z,2.40
2024-01-26T12:14:18.065Z,2.40
2024-01-26T12:16:45.138Z,2.40
2024-01-26T12:19:12.711Z,2.50
2024-01-26T12:21:40.002Z,2.50
2024-01-26T12:24:13.357Z,2.50
2024-01-26T12:26:42.676Z,2.50
2024-01-26T12:29:10.141Z,2.50
2024-01-26T12:31:38.156Z,2.40
2024-01-26T12:34:13.558Z,2.40
2024-01-26T12:36:41.772Z,2.40
2024-01-26T12:39:09.271Z,2.40
2024-01-26T12:41:36.617Z,2.40
2024-01-26T12:44:04.746Z,2.40
2024-01-26T12:46:31.894Z,2.40
2024-01-26T12:48:59.477Z,2.30
2024-01-26T12:51:26.703Z,2.30
2024-01-26T12:53:54.209Z,2.30
2024-01-26T12:56:21.525Z,4.20
2024-01-26T12:58:48.860Z,2.30
2024-01-26T13:01:23.244Z,2.30
2024-01-26T13:03:50.881Z,2.30
2024-01-26T13:06:19.573Z,2.30
2024-01-26T13:08:47.347Z,2.40
2024-01-26T13:11:14.668Z,2.40
2024-01-26T13:13:42.286Z,2.40
2024-01-26T13:16:09.456Z,2.40
2024-01-26T13:18:40.566Z,2.40
2024-01-26T13:21:08.522Z,2.40
2024-01-26T13:23:36.200Z,2.20
2024-01-26T13:26:03.812Z,2.20
2024-01-26T13:28:31.467Z,2.20
2024-01-26T13:30:59.159Z,2.20
2024-01-26T13:33:28.386Z,2.00
2024-01-26T13:35:55.724Z,2.20
2024-01-26T13:38:24.706Z,2.00
2024-01-26T13:40:52.284Z,1.90
2024-01-26T13:43:19.912Z,1.90
2024-01-26T13:45:47.456Z,2.20
2024-01-26T13:48:14.898Z,1.80
2024-01-26T13:50:44.985Z,1.80
2024-01-26T13:53:12.593Z,1.80
2024-01-26T13:55:39.690Z,1.80
2024-01-26T13:58:07.270Z,1.70
2024-01-26T14:00:34.404Z,2.80
2024-01-26T14:03:02.671Z,1.70
2024-01-26T14:05:29.887Z,1.70
2024-01-26T14:07:57.335Z,1.70
2024-01-26T14:10:24.493Z,1.70
2024-01-26T14:12:52.152Z,1.60
2024-01-26T14:15:21.082Z,1.70
2024-01-26T14:17:49.101Z,1.60
2024-01-26T14:20:18.939Z,1.60
2024-01-26T14:22:46.479Z,1.60
2024-01-26T14:25:13.995Z,1.60
2024-01-26T14:27:41.398Z,1.60
2024-01-26T14:30:12.714Z,1.60
2024-01-26T14:32:40.874Z,1.60
2024-01-26T14:35:11.964Z,1.60
2024-01-26T14:37:41.781Z,1.60
2024-01-26T14:40:14.338Z,1.60
2024-01-26T14:42:41.959Z,1.60
2024-01-26T14:45:09.541Z,1.70
2024-01-26T14:47:37.193Z,1.70
2024-01-26T14:50:11.012Z,1.70
2024-01-26T14:52:40.041Z,1.80
2024-01-26T14:55:09.394Z,1.80
2024-01-26T14:57:39.463Z,1.80
2024-01-26T15:00:09.151Z,1.80
2024-01-26T15:02:37.430Z,1.80
2024-01-26T15:05:05.493Z,1.80
2024-01-26T15:07:36.046Z,1.80
2024-01-26T15:10:06.119Z,1.80
2024-01-26T15:12:33.650Z,1.90
2024-01-26T15:15:00.850Z,1.80
2024-01-26T15:17:28.346Z,1.80
2024-01-26T15:19:56.008Z,1.80
2024-01-26T15:22:23.555Z,1.90
2024-01-26T15:24:50.960Z,1.80
2024-01-26T15:27:22.481Z,1.80
2024-01-26T15:29:49.620Z,1.80
2024-01-26T15:32:17.027Z,1.80
2024-01-26T15:34:44.232Z,1.80
2024-01-26T15:37:13.002Z,1.80
2024-01-26T15:39:40.120Z,1.80
2024-01-26T15:42:08.420Z,1.80
2024-01-26T15:44:37.494Z,1.80
2024-01-26T15:47:05.474Z,1.80
2024-01-26T15:49:32.731Z,1.80
2024-01-26T15:52:01.048Z,1.80
2024-01-26T15:54:28.173Z,1.70
2024-01-26T15:56:55.642Z,1.60
2024-01-26T15:59:22.868Z,1.60
2024-01-26T16:01:53.405Z,1.50
2024-01-26T16:04:20.787Z,1.50
2024-01-26T16:06:50.623Z,1.50
2024-01-26T16:09:18.179Z,1.60
2024-01-26T16:11:47.435Z,1.60
2024-01-26T16:14:14.796Z,1.60
2024-01-26T16:16:42.719Z,1.60
2024-01-26T16:19:10.887Z,1.60
2024-01-26T16:21:38.728Z,1.70
2024-01-26T16:24:06.504Z,1.70
2024-01-26T16:26:35.065Z,1.70
2024-01-26T16:29:03.292Z,1.70
2024-01-26T16:31:33.794Z,1.80
2024-01-26T16:34:03.733Z,1.80
2024-01-26T16:36:31.276Z,1.80
2024-01-26T16:38:58.744Z,1.80
2024-01-26T16:41:26.225Z,1.80
2024-01-26T16:43:54.905Z,1.90
2024-01-26T16:46:23.321Z,1.80
2024-01-26T16:48:51.704Z,1.80
2024-01-26T16:51:19.480Z,1.80
2024-01-26T16:53:46.816Z,1.80
2024-01-26T16:56:14.397Z,1.80
2024-01-26T16:58:41.860Z,1.90
2024-01-26T17:01:16.308Z,1.80
2024-01-26T17:03:44.187Z,1.90
2024-01-26T17:06:11.690Z,1.80
2024-01-26T17:08:38.944Z,1.90
2024-01-26T17:11:06.422Z,1.90
2024-01-26T17:13:36.690Z,1.90
2024-01-26T17:16:06.167Z,1.90
2024-01-26T17:18:33.492Z,1.90
2024-01-26T17:21:01.232Z,1.90
2024-01-26T17:23:28.474Z,2.20
2024-01-26T17:25:56.706Z,1.90
2024-01-26T17:28:23.798Z,1.90
2024-01-26T17:30:53.185Z,1.90
2024-01-26T17:33:21.562Z,1.80
2024-01-26T17:35:49.146Z,1.80
2024-01-26T17:38:16.293Z,1.80
2024-01-26T17:40:43.790Z,1.80
2024-01-26T17:43:10.793Z,1.80
2024-01-26T17:45:38.245Z,1.80
2024-01-26T17:48:06.633Z,1.80
2024-01-26T17:50:36.075Z,1.80
2024-01-26T17:53:03.375Z,1.80
2024-01-26T17:55:38.399Z,1.80
2024-01-26T17:58:07.214Z,1.70
2024-01-26T18:00:36.788Z,1.70
2024-01-26T18:03:04.709Z,1.70
2024-01-26T18:05:32.331Z,1.70
2024-01-26T18:07:59.617Z,1.80
2024-01-26T18:10:27.885Z,1.80
2024-01-26T18:12:55.138Z,1.80
2024-01-26T18:15:22.831Z,1.70
2024-01-26T18:17:50.344Z,1.80
2024-01-26T18:20:18.510Z,1.80
2024-01-26T18:22:45.700Z,1.80
2024-01-26T18:25:14.854Z,1.80
2024-01-26T18:27:42.220Z,1.80
2024-01-26T18:30:10.149Z,1.80
2024-01-26T18:32:37.435Z,1.80
2024-01-26T18:35:05.830Z,1.80
2024-01-26T18:37:32.918Z,1.80
2024-01-26T18:40:00.311Z,1.80
2024-01-26T18:42:27.618Z,1.80
2024-01-26T18:44:55.112Z,1.80
2024-01-26T18:47:22.267Z,1.80
2024-01-26T18:49:50.232Z,1.80
2024-01-26T18:52:18.247Z,1.80
2024-01-26T18:54:46.120Z,1.80
2024-01-26T18:57:14.001Z,1.80
2024-01-26T18:59:41.449Z,1.80
2024-01-26T19:02:08.602Z,1.80
2024-01-26T19:04:37.432Z,1.80
2024-01-26T19:07:05.462Z,1.80
2024-01-26T19:09:35.708Z,1.80
2024-01-26T19:12:05.364Z,1.80
2024-01-26T19:14:33.007Z,1.80
2024-01-26T19:17:00.233Z,1.80
2024-01-26T19:19:27.665Z,1.80
2024-01-26T19:21:56.439Z,1.80
2024-01-26T19:24:25.091Z,1.80
2024-01-26T19:26:53.505Z,1.80
2024-01-26T19:29:21.137Z,1.80
2024-01-26T19:31:48.433Z,1.80
2024-01-26T19:34:15.959Z,1.80
2024-01-26T19:36:43.419Z,1.80
2024-01-26T19:39:12.913Z,1.80
2024-01-26T19:41:40.424Z,1.70
2024-01-26T19:44:07.915Z,1.80
2024-01-26T19:46:35.031Z,1.80
2024-01-26T19:49:02.721Z,1.80
2024-01-26T19:51:29.836Z,1.80
2024-01-26T19:53:57.275Z,1.80
2024-01-26T19:56:32.534Z,1.80
2024-01-26T19:59:05.351Z,1.80
2024-01-26T20:01:32.764Z,1.80
2024-01-26T20:04:00.356Z,1.90
2024-01-26T20:06:27.713Z,1.90
2024-01-26T20:08:55.448Z,1.90
2024-01-26T20:11:22.865Z,1.90
2024-01-26T20:13:50.474Z,2.00
2024-01-26T20:16:17.528Z,1.90
2024-01-26T20:18:45.170Z,1.90
2024-01-26T20:21:13.069Z,1.90
2024-01-26T20:23:42.131Z,1.90
2024-01-26T20:26:10.730Z,1.90
2024-01-26T20:28:39.347Z,1.90
2024-01-26T20:31:10.871Z,1.90
2024-01-26T20:33:44.833Z,2.00
2024-01-26T20:36:12.657Z,1.90
2024-01-26T20:38:40.264Z,1.90
2024-01-26T20:41:08.392Z,1.90
2024-01-26T20:43:35.876Z,1.90
2024-01-26T20:46:04.160Z,1.90
2024-01-26T20:48:31.858Z,1.90
2024-01-26T20:50:59.287Z,1.80
2024-01-26T20:53:26.983Z,1.80
2024-01-26T20:55:54.417Z,1.70
2024-01-26T20:58:21.800Z,1.70
2024-01-26T21:00:49.309Z,1.60
2024-01-26T21:03:16.814Z,1.50
2024-01-26T21:05:44.233Z,1.50
2024-01-26T21:08:12.236Z,1.40
2024-01-26T21:10:39.656Z,1.40
2024-01-26T21:13:07.155Z,1.30
2024-01-26T21:15:34.574Z,1.30
2024-01-26T21:18:03.161Z,1.20
2024-01-26T21:20:30.811Z,1.20
2024-01-26T21:22:59.257Z,1.20
2024-01-26T21:25:26.383Z,1.20
2024-01-26T21:27:53.799Z,1.10
2024-01-26T21:30:21.346Z,1.20
2024-01-26T21:32:49.269Z,1.20
2024-01-26T21:35:16.993Z,1.20
2024-01-26T21:37:45.624Z,1.10
2024-01-26T21:40:13.673Z,1.20
2024-01-26T21:42:41.658Z,1.20
2024-01-26T21:45:09.622Z,1.20
2024-01-26T21:47:37.373Z,1.20
2024-01-26T21:50:04.896Z,1.20
2024-01-26T21:52:32.622Z,1.20
2024-01-26T21:54:59.664Z,1.10
2024-01-26T21:57:27.773Z,1.10
2024-01-26T21:59:55.208Z,1.20
2024-01-26T22:02:22.737Z,1.20
2024-01-26T22:04:50.138Z,1.20
2024-01-26T22:07:20.106Z,1.20
2024-01-26T22:09:47.464Z,1.20
2024-01-26T22:12:15.102Z,1.20
2024-01-26T22:14:42.771Z,1.20
2024-01-26T22:17:10.398Z,1.20
2024-01-26T22:19:37.649Z,1.20
2024-01-26T22:22:05.163Z,1.20
2024-01-26T22:24:33.865Z,1.20
2024-01-26T22:27:01.385Z,1.20
2024-01-26T22:29:28.476Z,1.30
2024-01-26T22:31:55.877Z,1.20
2024-01-26T22:34:23.307Z,1.20
2024-01-26T22:36:50.871Z,1.20
2024-01-26T22:39:21.353Z,1.20
2024-01-26T22:41:48.942Z,1.20
2024-01-26T22:44:16.242Z,1.20
2024-01-26T22:46:43.680Z,1.20
2024-01-26T22:49:11.304Z,1.20
2024-01-26T22:51:38.961Z,1.20
2024-01-26T22:54:06.065Z,1.20
2024-01-26T22:56:33.536Z,1.20
2024-01-26T22:59:00.624Z,1.20
2024-01-26T23:01:28.107Z,1.20
2024-01-26T23:03:55.490Z,1.20
2024-01-26T23:06:23.366Z,1.20
2024-01-26T23:08:51.631Z,1.20
2024-01-26T23:11:21.755Z,1.20
2024-01-26T23:13:49.462Z,1.80
2024-01-26T23:16:21.181Z,1.20
2024-01-26T23:18:48.481Z,1.20
2024-01-26T23:21:16.062Z,1.20
2024-01-26T23:23:43.594Z,1.20
2024-01-26T23:26:10.922Z,1.20
2024-01-26T23:28:39.685Z,1.20
2024-01-26T23:31:07.129Z,1.20
2024-01-26T23:33:34.451Z,1.20
2024-01-26T23:36:02.266Z,1.20
2024-01-26T23:38:29.339Z,1.20
2024-01-26T23:40:57.903Z,1.20
2024-01-26T23:43:25.150Z,1.20
2024-01-26T23:45:52.514Z,1.30
2024-01-26T23:48:19.773Z,1.30
2024-01-26T23:50:47.388Z,1.30
2024-01-26T23:53:14.497Z,1.30
2024-01-26T23:55:41.878Z,1.30
2024-01-26T23:58:09.060Z,1.30
